sensor_id;sensor_type;location;lat;lon;timestamp;P1;durP1;ratioP1;P2;durP2;ratioP2
16612;SDS011;8419;52.358;9.752;2023-08-31T00:02:41;9.52;;;7.75;;
16612;SDS011;8419;52.358;9.752;2023-08-31T00:05:27;12.63;;;8.70;;
16612;SDS011;8419;52.358;9.752;2023-08-31T00:08:15;12.30;;;8.18;;
16612;SDS011;8419;52.358;9.752;2023-08-31T00:11:02;9.60;;;6.32;;
16612;SDS011;8419;52.358;9.752;2023-08-31T00:13:47;10.93;;;7.78;;
16612;SDS011;8419;52.358;9.752;2023-08-31T00:16:33;7.85;;;6.97;;
16612;SDS011;8419;52.358;9.752;2023-08-31T00:19:19;8.40;;;6.97;;
16612;SDS011;8419;52.358;9.752;2023-08-31T00:22:04;10.43;;;7.03;;
16612;SDS011;8419;52.358;9.752;2023-08-31T00:24:50;15.05;;;7.70;;
16612;SDS011;8419;52.358;9.752;2023-08-31T00:27:37;9.95;;;6.78;;
16612;SDS011;8419;52.358;9.752;2023-08-31T00:30:22;11.77;;;6.60;;
16612;SDS011;8419;52.358;9.752;2023-08-31T00:33:12;8.05;;;6.28;;
16612;SDS011;8419;52.358;9.752;2023-08-31T00:35:59;8.85;;;6.43;;
16612;SDS011;8419;52.358;9.752;2023-08-31T00:38:47;9.38;;;5.62;;
16612;SDS011;8419;52.358;9.752;2023-08-31T00:41:33;10.60;;;6.93;;
16612;SDS011;8419;52.358;9.752;2023-08-31T00:44:19;11.23;;;6.18;;
16612;SDS011;8419;52.358;9.752;2023-08-31T00:47:05;7.55;;;6.18;;
16612;SDS011;8419;52.358;9.752;2023-08-31T00:49:52;14.40;;;5.90;;
16612;SDS011;8419;52.358;9.752;2023-08-31T00:52:37;7.15;;;5.68;;
16612;SDS011;8419;52.358;9.752;2023-08-31T00:55:23;11.50;;;6.85;;
16612;SDS011;8419;52.358;9.752;2023-08-31T00:58:11;10.00;;;6.15;;
16612;SDS011;8419;52.358;9.752;2023-08-31T01:01:00;9.85;;;6.28;;
16612;SDS011;8419;52.358;9.752;2023-08-31T01:03:57;7.45;;;5.75;;
16612;SDS011;8419;52.358;9.752;2023-08-31T01:06:51;6.80;;;5.45;;
16612;SDS011;8419;52.358;9.752;2023-08-31T01:09:46;8.40;;;6.28;;
16612;SDS011;8419;52.358;9.752;2023-08-31T01:12:44;7.30;;;5.93;;
16612;SDS011;8419;52.358;9.752;2023-08-31T01:15:37;11.32;;;6.22;;
16612;SDS011;8419;52.358;9.752;2023-08-31T01:18:26;7.90;;;6.07;;
16612;SDS011;8419;52.358;9.752;2023-08-31T01:21:24;7.53;;;5.55;;
16612;SDS011;8419;52.358;9.752;2023-08-31T01:24:14;10.18;;;5.95;;
16612;SDS011;8419;52.358;9.752;2023-08-31T01:27:01;8.27;;;6.43;;
16612;SDS011;8419;52.358;9.752;2023-08-31T01:29:47;10.70;;;6.87;;
16612;SDS011;8419;52.358;9.752;2023-08-31T01:32:34;7.15;;;6.12;;
16612;SDS011;8419;52.358;9.752;2023-08-31T01:35:19;7.90;;;6.43;;
16612;SDS011;8419;52.358;9.752;2023-08-31T01:38:05;9.40;;;6.87;;
16612;SDS011;8419;52.358;9.752;2023-08-31T01:40:54;10.88;;;6.62;;
16612;SDS011;8419;52.358;9.752;2023-08-31T01:43:45;11.55;;;7.40;;
16612;SDS011;8419;52.358;9.752;2023-08-31T01:46:33;9.88;;;6.72;;
16612;SDS011;8419;52.358;9.752;2023-08-31T01:49:19;15.23;;;7.43;;
16612;SDS011;8419;52.358;9.752;2023-08-31T01:52:05;12.00;;;7.50;;
16612;SDS011;8419;52.358;9.752;2023-08-31T01:54:51;10.07;;;7.50;;
16612;SDS011;8419;52.358;9.752;2023-08-31T01:57:37;9.32;;;6.47;;
16612;SDS011;8419;52.358;9.752;2023-08-31T02:00:22;11.77;;;7.20;;
16612;SDS011;8419;52.358;9.752;2023-08-31T02:03:07;11.65;;;7.43;;
16612;SDS011;8419;52.358;9.752;2023-08-31T02:05:54;10.82;;;7.43;;
16612;SDS011;8419;52.358;9.752;2023-08-31T02:08:40;9.57;;;7.75;;
16612;SDS011;8419;52.358;9.752;2023-08-31T02:11:28;12.80;;;6.95;;
16612;SDS011;8419;52.358;9.752;2023-08-31T02:14:15;9.80;;;7.18;;
16612;SDS011;8419;52.358;9.752;2023-08-31T02:17:02;11.30;;;7.80;;
16612;SDS011;8419;52.358;9.752;2023-08-31T02:19:48;8.90;;;7.37;;
16612;SDS011;8419;52.358;9.752;2023-08-31T02:22:34;11.90;;;7.35;;
16612;SDS011;8419;52.358;9.752;2023-08-31T02:25:22;11.12;;;6.93;;
16612;SDS011;8419;52.358;9.752;2023-08-31T02:28:12;11.90;;;6.82;;
16612;SDS011;8419;52.358;9.752;2023-08-31T02:30:58;12.02;;;7.05;;
16612;SDS011;8419;52.358;9.752;2023-08-31T02:33:44;11.25;;;7.03;;
16612;SDS011;8419;52.358;9.752;2023-08-31T02:36:30;10.43;;;7.85;;
16612;SDS011;8419;52.358;9.752;2023-08-31T02:39:16;10.60;;;6.93;;
16612;SDS011;8419;52.358;9.752;2023-08-31T02:42:01;12.13;;;6.75;;
16612;SDS011;8419;52.358;9.752;2023-08-31T02:44:52;8.65;;;6.53;;
16612;SDS011;8419;52.358;9.752;2023-08-31T02:47:38;12.57;;;6.90;;
16612;SDS011;8419;52.358;9.752;2023-08-31T02:50:23;11.45;;;7.12;;
16612;SDS011;8419;52.358;9.752;2023-08-31T02:53:09;10.55;;;6.93;;
16612;SDS011;8419;52.358;9.752;2023-08-31T02:55:55;7.78;;;6.35;;
16612;SDS011;8419;52.358;9.752;2023-08-31T02:58:41;10.02;;;6.62;;
16612;SDS011;8419;52.358;9.752;2023-08-31T03:01:27;8.13;;;5.82;;
16612;SDS011;8419;52.358;9.752;2023-08-31T03:04:13;9.32;;;6.95;;
16612;SDS011;8419;52.358;9.752;2023-08-31T03:06:58;12.50;;;6.68;;
16612;SDS011;8419;52.358;9.752;2023-08-31T03:09:48;10.60;;;6.35;;
16612;SDS011;8419;52.358;9.752;2023-08-31T03:12:35;10.70;;;7.00;;
16612;SDS011;8419;52.358;9.752;2023-08-31T03:15:20;8.68;;;6.47;;
16612;SDS011;8419;52.358;9.752;2023-08-31T03:18:06;9.45;;;6.07;;
16612;SDS011;8419;52.358;9.752;2023-08-31T03:20:51;8.88;;;6.12;;
16612;SDS011;8419;52.358;9.752;2023-08-31T03:23:37;11.07;;;6.53;;
16612;SDS011;8419;52.358;9.752;2023-08-31T03:26:23;7.62;;;6.35;;
16612;SDS011;8419;52.358;9.752;2023-08-31T03:29:08;8.68;;;5.95;;
16612;SDS011;8419;52.358;9.752;2023-08-31T03:31:54;8.93;;;5.93;;
16612;SDS011;8419;52.358;9.752;2023-08-31T03:34:40;11.77;;;6.62;;
16612;SDS011;8419;52.358;9.752;2023-08-31T03:37:25;10.32;;;6.37;;
16612;SDS011;8419;52.358;9.752;2023-08-31T03:40:11;11.20;;;6.05;;
16612;SDS011;8419;52.358;9.752;2023-08-31T03:42:59;11.98;;;6.60;;
16612;SDS011;8419;52.358;9.752;2023-08-31T03:45:44;6.70;;;5.22;;
16612;SDS011;8419;52.358;9.752;2023-08-31T03:48:30;7.25;;;5.72;;
16612;SDS011;8419;52.358;9.752;2023-08-31T03:51:16;12.43;;;6.22;;
16612;SDS011;8419;52.358;9.752;2023-08-31T03:54:01;8.57;;;6.20;;
16612;SDS011;8419;52.358;9.752;2023-08-31T03:56:47;9.50;;;5.70;;
16612;SDS011;8419;52.358;9.752;2023-08-31T03:59:32;9.27;;;6.15;;
16612;SDS011;8419;52.358;9.752;2023-08-31T04:02:18;9.48;;;5.20;;
16612;SDS011;8419;52.358;9.752;2023-08-31T04:05:04;6.50;;;5.15;;
16612;SDS011;8419;52.358;9.752;2023-08-31T04:07:53;9.85;;;6.03;;
16612;SDS011;8419;52.358;9.752;2023-08-31T04:10:39;11.27;;;5.70;;
16612;SDS011;8419;52.358;9.752;2023-08-31T04:13:24;12.35;;;6.97;;
16612;SDS011;8419;52.358;9.752;2023-08-31T04:16:10;7.93;;;5.60;;
16612;SDS011;8419;52.358;9.752;2023-08-31T04:18:56;7.93;;;5.37;;
16612;SDS011;8419;52.358;9.752;2023-08-31T04:21:41;8.02;;;4.87;;
16612;SDS011;8419;52.358;9.752;2023-08-31T04:24:27;6.68;;;5.00;;
16612;SDS011;8419;52.358;9.752;2023-08-31T04:27:12;7.28;;;5.40;;
16612;SDS011;8419;52.358;9.752;2023-08-31T04:29:59;6.80;;;5.10;;
16612;SDS011;8419;52.358;9.752;2023-08-31T04:32:47;8.50;;;5.65;;
16612;SDS011;8419;52.358;9.752;2023-08-31T04:35:33;8.07;;;5.03;;
16612;SDS011;8419;52.358;9.752;2023-08-31T04:38:19;8.57;;;5.75;;
16612;SDS011;8419;52.358;9.752;2023-08-31T04:41:04;10.70;;;5.10;;
16612;SDS011;8419;52.358;9.752;2023-08-31T04:43:50;10.68;;;5.87;;
16612;SDS011;8419;52.358;9.752;2023-08-31T04:46:36;9.07;;;5.75;;
16612;SDS011;8419;52.358;9.752;2023-08-31T04:49:22;7.25;;;5.68;;
16612;SDS011;8419;52.358;9.752;2023-08-31T04:52:08;8.25;;;5.12;;
16612;SDS011;8419;52.358;9.752;2023-08-31T04:54:54;11.35;;;6.03;;
16612;SDS011;8419;52.358;9.752;2023-08-31T04:57:40;9.27;;;5.62;;
16612;SDS011;8419;52.358;9.752;2023-08-31T05:00:25;11.23;;;6.47;;
16612;SDS011;8419;52.358;9.752;2023-08-31T05:03:11;8.13;;;6.37;;
16612;SDS011;8419;52.358;9.752;2023-08-31T05:05:56;8.05;;;6.47;;
16612;SDS011;8419;52.358;9.752;2023-08-31T05:08:42;8.18;;;6.40;;
16612;SDS011;8419;52.358;9.752;2023-08-31T05:11:28;9.15;;;7.35;;
16612;SDS011;8419;52.358;9.752;2023-08-31T05:14:14;11.48;;;7.93;;
16612;SDS011;8419;52.358;9.752;2023-08-31T05:16:59;9.48;;;7.70;;
16612;SDS011;8419;52.358;9.752;2023-08-31T05:19:45;11.85;;;7.87;;
16612;SDS011;8419;52.358;9.752;2023-08-31T05:22:31;11.90;;;8.38;;
16612;SDS011;8419;52.358;9.752;2023-08-31T05:25:17;11.77;;;7.72;;
16612;SDS011;8419;52.358;9.752;2023-08-31T05:28:03;13.75;;;9.05;;
16612;SDS011;8419;52.358;9.752;2023-08-31T05:30:50;12.63;;;8.32;;
16612;SDS011;8419;52.358;9.752;2023-08-31T05:33:36;13.48;;;9.23;;
16612;SDS011;8419;52.358;9.752;2023-08-31T05:36:21;14.30;;;8.25;;
16612;SDS011;8419;52.358;9.752;2023-08-31T05:39:07;16.27;;;9.02;;
16612;SDS011;8419;52.358;9.752;2023-08-31T05:41:53;11.27;;;9.25;;
16612;SDS011;8419;52.358;9.752;2023-08-31T05:44:41;14.87;;;9.07;;
16612;SDS011;8419;52.358;9.752;2023-08-31T05:47:26;12.43;;;9.65;;
16612;SDS011;8419;52.358;9.752;2023-08-31T05:50:12;13.80;;;9.82;;
16612;SDS011;8419;52.358;9.752;2023-08-31T05:52:58;15.38;;;10.18;;
16612;SDS011;8419;52.358;9.752;2023-08-31T05:55:43;13.88;;;9.85;;
16612;SDS011;8419;52.358;9.752;2023-08-31T05:58:29;15.85;;;10.50;;
16612;SDS011;8419;52.358;9.752;2023-08-31T06:01:15;13.05;;;9.52;;
16612;SDS011;8419;52.358;9.752;2023-08-31T06:04:00;13.23;;;10.50;;
16612;SDS011;8419;52.358;9.752;2023-08-31T06:06:47;14.05;;;10.43;;
16612;SDS011;8419;52.358;9.752;2023-08-31T06:09:33;12.75;;;11.12;;
16612;SDS011;8419;52.358;9.752;2023-08-31T06:12:18;13.48;;;10.63;;
16612;SDS011;8419;52.358;9.752;2023-08-31T06:15:05;14.50;;;10.50;;
16612;SDS011;8419;52.358;9.752;2023-08-31T06:17:51;13.85;;;11.73;;
16612;SDS011;8419;52.358;9.752;2023-08-31T06:20:36;12.13;;;10.05;;
16612;SDS011;8419;52.358;9.752;2023-08-31T06:23:22;16.33;;;11.70;;
16612;SDS011;8419;52.358;9.752;2023-08-31T06:26:08;17.83;;;12.95;;
16612;SDS011;8419;52.358;9.752;2023-08-31T06:28:53;17.10;;;12.52;;
16612;SDS011;8419;52.358;9.752;2023-08-31T06:31:39;16.25;;;11.57;;
16612;SDS011;8419;52.358;9.752;2023-08-31T06:34:24;17.35;;;11.68;;
16612;SDS011;8419;52.358;9.752;2023-08-31T06:37:10;15.10;;;11.95;;
16612;SDS011;8419;52.358;9.752;2023-08-31T06:39:55;14.73;;;11.18;;
16612;SDS011;8419;52.358;9.752;2023-08-31T06:42:41;13.18;;;10.77;;
16612;SDS011;8419;52.358;9.752;2023-08-31T06:45:29;10.75;;;8.75;;
16612;SDS011;8419;52.358;9.752;2023-08-31T06:48:14;16.00;;;12.10;;
16612;SDS011;8419;52.358;9.752;2023-08-31T06:50:59;16.20;;;11.85;;
16612;SDS011;8419;52.358;9.752;2023-08-31T06:53:48;14.68;;;10.40;;
16612;SDS011;8419;52.358;9.752;2023-08-31T06:56:33;15.40;;;11.60;;
16612;SDS011;8419;52.358;9.752;2023-08-31T06:59:19;20.45;;;10.88;;
16612;SDS011;8419;52.358;9.752;2023-08-31T07:02:04;11.77;;;10.20;;
16612;SDS011;8419;52.358;9.752;2023-08-31T07:04:50;12.50;;;10.52;;
16612;SDS011;8419;52.358;9.752;2023-08-31T07:07:36;15.38;;;11.05;;
16612;SDS011;8419;52.358;9.752;2023-08-31T07:10:23;12.75;;;9.75;;
16612;SDS011;8419;52.358;9.752;2023-08-31T07:13:09;15.13;;;11.35;;
16612;SDS011;8419;52.358;9.752;2023-08-31T07:15:55;14.07;;;10.95;;
16612;SDS011;8419;52.358;9.752;2023-08-31T07:18:40;13.90;;;9.35;;
16612;SDS011;8419;52.358;9.752;2023-08-31T07:21:26;15.70;;;10.05;;
16612;SDS011;8419;52.358;9.752;2023-08-31T07:24:11;12.95;;;10.40;;
16612;SDS011;8419;52.358;9.752;2023-08-31T07:26:57;13.68;;;10.60;;
16612;SDS011;8419;52.358;9.752;2023-08-31T07:29:43;13.45;;;10.45;;
16612;SDS011;8419;52.358;9.752;2023-08-31T07:32:30;12.82;;;10.20;;
16612;SDS011;8419;52.358;9.752;2023-08-31T07:35:16;10.65;;;8.77;;
16612;SDS011;8419;52.358;9.752;2023-08-31T07:38:01;12.75;;;10.18;;
16612;SDS011;8419;52.358;9.752;2023-08-31T07:40:48;13.32;;;10.00;;
16612;SDS011;8419;52.358;9.752;2023-08-31T07:43:36;9.43;;;8.38;;
16612;SDS011;8419;52.358;9.752;2023-08-31T07:46:21;9.98;;;7.87;;
16612;SDS011;8419;52.358;9.752;2023-08-31T07:49:07;9.68;;;8.35;;
16612;SDS011;8419;52.358;9.752;2023-08-31T07:51:53;8.90;;;7.05;;
16612;SDS011;8419;52.358;9.752;2023-08-31T07:54:39;9.23;;;6.97;;
16612;SDS011;8419;52.358;9.752;2023-08-31T07:57:24;9.25;;;7.18;;
16612;SDS011;8419;52.358;9.752;2023-08-31T08:00:11;9.32;;;6.47;;
16612;SDS011;8419;52.358;9.752;2023-08-31T08:02:59;6.22;;;5.43;;
16612;SDS011;8419;52.358;9.752;2023-08-31T08:05:44;11.50;;;6.50;;
16612;SDS011;8419;52.358;9.752;2023-08-31T08:08:30;5.47;;;4.43;;
16612;SDS011;8419;52.358;9.752;2023-08-31T08:11:15;8.52;;;5.97;;
16612;SDS011;8419;52.358;9.752;2023-08-31T08:14:01;8.50;;;7.60;;
16612;SDS011;8419;52.358;9.752;2023-08-31T08:16:47;11.12;;;7.18;;
16612;SDS011;8419;52.358;9.752;2023-08-31T08:19:33;8.23;;;6.50;;
16612;SDS011;8419;52.358;9.752;2023-08-31T08:22:18;10.10;;;6.10;;
16612;SDS011;8419;52.358;9.752;2023-08-31T08:25:05;7.93;;;6.37;;
16612;SDS011;8419;52.358;9.752;2023-08-31T08:27:51;8.25;;;5.45;;
16612;SDS011;8419;52.358;9.752;2023-08-31T08:30:37;7.03;;;5.22;;
16612;SDS011;8419;52.358;9.752;2023-08-31T08:33:22;5.28;;;4.28;;
16612;SDS011;8419;52.358;9.752;2023-08-31T08:36:09;4.87;;;4.40;;
16612;SDS011;8419;52.358;9.752;2023-08-31T08:38:54;5.18;;;4.68;;
16612;SDS011;8419;52.358;9.752;2023-08-31T08:41:41;7.90;;;4.72;;
16612;SDS011;8419;52.358;9.752;2023-08-31T08:44:28;6.12;;;3.87;;
16612;SDS011;8419;52.358;9.752;2023-08-31T08:47:16;8.52;;;3.65;;
16612;SDS011;8419;52.358;9.752;2023-08-31T08:50:04;4.53;;;3.42;;
16612;SDS011;8419;52.358;9.752;2023-08-31T08:52:51;1.85;;;1.65;;
16612;SDS011;8419;52.358;9.752;2023-08-31T08:55:37;5.80;;;4.30;;
16612;SDS011;8419;52.358;9.752;2023-08-31T08:58:23;7.50;;;4.97;;
16612;SDS011;8419;52.358;9.752;2023-08-31T09:01:08;5.85;;;4.68;;
16612;SDS011;8419;52.358;9.752;2023-08-31T09:03:54;4.60;;;3.70;;
16612;SDS011;8419;52.358;9.752;2023-08-31T09:06:40;5.28;;;4.75;;
16612;SDS011;8419;52.358;9.752;2023-08-31T09:09:25;5.60;;;4.37;;
16612;SDS011;8419;52.358;9.752;2023-08-31T09:12:11;3.90;;;3.33;;
16612;SDS011;8419;52.358;9.752;2023-08-31T09:14:57;3.95;;;3.08;;
16612;SDS011;8419;52.358;9.752;2023-08-31T09:17:44;5.43;;;3.62;;
16612;SDS011;8419;52.358;9.752;2023-08-31T09:20:31;8.43;;;5.03;;
16612;SDS011;8419;52.358;9.752;2023-08-31T09:23:27;5.35;;;4.37;;
16612;SDS011;8419;52.358;9.752;2023-08-31T09:26:13;6.65;;;4.90;;
16612;SDS011;8419;52.358;9.752;2023-08-31T09:28:59;4.60;;;2.95;;
16612;SDS011;8419;52.358;9.752;2023-08-31T09:31:44;2.78;;;2.50;;
16612;SDS011;8419;52.358;9.752;2023-08-31T09:34:33;4.20;;;3.05;;
16612;SDS011;8419;52.358;9.752;2023-08-31T09:37:18;4.20;;;3.35;;
16612;SDS011;8419;52.358;9.752;2023-08-31T09:40:05;4.28;;;3.78;;
16612;SDS011;8419;52.358;9.752;2023-08-31T09:42:52;3.05;;;2.75;;
16612;SDS011;8419;52.358;9.752;2023-08-31T09:45:37;4.87;;;3.35;;
16612;SDS011;8419;52.358;9.752;2023-08-31T09:48:23;3.03;;;2.83;;
16612;SDS011;8419;52.358;9.752;2023-08-31T09:51:10;5.70;;;4.30;;
16612;SDS011;8419;52.358;9.752;2023-08-31T09:53:58;5.20;;;3.78;;
16612;SDS011;8419;52.358;9.752;2023-08-31T09:56:47;4.50;;;4.07;;
16612;SDS011;8419;52.358;9.752;2023-08-31T09:59:33;5.57;;;4.12;;
16612;SDS011;8419;52.358;9.752;2023-08-31T10:02:20;4.40;;;4.00;;
16612;SDS011;8419;52.358;9.752;2023-08-31T10:05:06;4.03;;;3.60;;
16612;SDS011;8419;52.358;9.752;2023-08-31T10:07:53;5.00;;;3.50;;
16612;SDS011;8419;52.358;9.752;2023-08-31T10:10:39;4.45;;;3.33;;
16612;SDS011;8419;52.358;9.752;2023-08-31T10:13:25;4.03;;;3.15;;
16612;SDS011;8419;52.358;9.752;2023-08-31T10:16:15;3.30;;;3.00;;
16612;SDS011;8419;52.358;9.752;2023-08-31T10:19:03;5.05;;;3.45;;
16612;SDS011;8419;52.358;9.752;2023-08-31T10:21:49;4.65;;;2.72;;
16612;SDS011;8419;52.358;9.752;2023-08-31T10:27:42;1.70;;;1.60;;
16612;SDS011;8419;52.358;9.752;2023-08-31T10:30:31;3.95;;;3.55;;
16612;SDS011;8419;52.358;9.752;2023-08-31T10:33:20;2.20;;;1.50;;
16612;SDS011;8419;52.358;9.752;2023-08-31T10:36:09;4.37;;;3.97;;
16612;SDS011;8419;52.358;9.752;2023-08-31T10:39:00;3.62;;;3.00;;
16612;SDS011;8419;52.358;9.752;2023-08-31T10:41:54;5.50;;;3.42;;
16612;SDS011;8419;52.358;9.752;2023-08-31T10:44:41;5.10;;;3.70;;
16612;SDS011;8419;52.358;9.752;2023-08-31T10:47:36;3.42;;;3.08;;
16612;SDS011;8419;52.358;9.752;2023-08-31T10:50:22;3.60;;;3.30;;
16612;SDS011;8419;52.358;9.752;2023-08-31T10:53:10;6.87;;;2.97;;
16612;SDS011;8419;52.358;9.752;2023-08-31T10:55:56;4.65;;;3.10;;
16612;SDS011;8419;52.358;9.752;2023-08-31T10:58:41;4.43;;;3.10;;
16612;SDS011;8419;52.358;9.752;2023-08-31T11:05:10;6.22;;;3.62;;
16612;SDS011;8419;52.358;9.752;2023-08-31T11:08:00;4.90;;;2.97;;
16612;SDS011;8419;52.358;9.752;2023-08-31T11:10:47;3.70;;;3.40;;
16612;SDS011;8419;52.358;9.752;2023-08-31T11:13:35;7.45;;;3.30;;
16612;SDS011;8419;52.358;9.752;2023-08-31T11:16:22;3.25;;;2.95;;
16612;SDS011;8419;52.358;9.752;2023-08-31T11:19:08;4.35;;;2.58;;
16612;SDS011;8419;52.358;9.752;2023-08-31T11:21:54;3.25;;;2.20;;
16612;SDS011;8419;52.358;9.752;2023-08-31T11:24:40;3.03;;;2.03;;
16612;SDS011;8419;52.358;9.752;2023-08-31T11:27:25;2.35;;;1.87;;
16612;SDS011;8419;52.358;9.752;2023-08-31T11:30:12;3.22;;;2.00;;
16612;SDS011;8419;52.358;9.752;2023-08-31T11:33:01;3.08;;;2.22;;
16612;SDS011;8419;52.358;9.752;2023-08-31T11:35:48;2.50;;;2.30;;
16612;SDS011;8419;52.358;9.752;2023-08-31T11:38:35;3.33;;;2.30;;
16612;SDS011;8419;52.358;9.752;2023-08-31T11:41:21;2.55;;;1.62;;
16612;SDS011;8419;52.358;9.752;2023-08-31T11:44:08;3.03;;;2.42;;
16612;SDS011;8419;52.358;9.752;2023-08-31T11:46:54;2.12;;;1.65;;
16612;SDS011;8419;52.358;9.752;2023-08-31T11:49:40;2.12;;;1.77;;
16612;SDS011;8419;52.358;9.752;2023-08-31T11:52:26;1.42;;;1.27;;
16612;SDS011;8419;52.358;9.752;2023-08-31T11:55:13;2.20;;;1.90;;
16612;SDS011;8419;52.358;9.752;2023-08-31T11:58:02;5.43;;;2.35;;
16612;SDS011;8419;52.358;9.752;2023-08-31T12:00:55;1.75;;;1.62;;
16612;SDS011;8419;52.358;9.752;2023-08-31T12:03:43;1.60;;;1.50;;
16612;SDS011;8419;52.358;9.752;2023-08-31T12:06:29;2.85;;;1.20;;
16612;SDS011;8419;52.358;9.752;2023-08-31T12:09:14;2.35;;;1.85;;
16612;SDS011;8419;52.358;9.752;2023-08-31T12:12:01;1.58;;;1.37;;
16612;SDS011;8419;52.358;9.752;2023-08-31T12:14:52;3.22;;;1.48;;
16612;SDS011;8419;52.358;9.752;2023-08-31T12:17:38;1.83;;;1.45;;
16612;SDS011;8419;52.358;9.752;2023-08-31T12:20:25;1.90;;;1.08;;
16612;SDS011;8419;52.358;9.752;2023-08-31T12:23:10;2.03;;;1.27;;
16612;SDS011;8419;52.358;9.752;2023-08-31T12:25:59;2.03;;;1.67;;
16612;SDS011;8419;52.358;9.752;2023-08-31T12:28:46;2.45;;;1.55;;
16612;SDS011;8419;52.358;9.752;2023-08-31T12:31:32;2.22;;;1.40;;
16612;SDS011;8419;52.358;9.752;2023-08-31T12:34:18;0.62;;;0.57;;
16612;SDS011;8419;52.358;9.752;2023-08-31T12:37:04;2.20;;;1.12;;
16612;SDS011;8419;52.358;9.752;2023-08-31T12:39:50;2.65;;;1.20;;
16612;SDS011;8419;52.358;9.752;2023-08-31T12:42:35;0.85;;;0.85;;
16612;SDS011;8419;52.358;9.752;2023-08-31T12:45:21;1.30;;;1.08;;
16612;SDS011;8419;52.358;9.752;2023-08-31T12:48:06;1.23;;;1.10;;
16612;SDS011;8419;52.358;9.752;2023-08-31T12:50:53;1.92;;;1.40;;
16612;SDS011;8419;52.358;9.752;2023-08-31T12:53:39;3.22;;;1.25;;
16612;SDS011;8419;52.358;9.752;2023-08-31T12:56:25;1.30;;;1.20;;
16612;SDS011;8419;52.358;9.752;2023-08-31T12:59:11;1.20;;;1.10;;
16612;SDS011;8419;52.358;9.752;2023-08-31T13:01:56;0.70;;;0.68;;
16612;SDS011;8419;52.358;9.752;2023-08-31T13:04:42;3.47;;;2.05;;
16612;SDS011;8419;52.358;9.752;2023-08-31T13:07:28;2.55;;;1.15;;
16612;SDS011;8419;52.358;9.752;2023-08-31T13:10:14;1.70;;;1.20;;
16612;SDS011;8419;52.358;9.752;2023-08-31T13:13:02;2.50;;;1.00;;
16612;SDS011;8419;52.358;9.752;2023-08-31T13:15:48;0.85;;;0.80;;
16612;SDS011;8419;52.358;9.752;2023-08-31T13:18:34;0.60;;;0.57;;
16612;SDS011;8419;52.358;9.752;2023-08-31T13:21:21;0.43;;;0.35;;
16612;SDS011;8419;52.358;9.752;2023-08-31T13:24:07;2.33;;;0.90;;
16612;SDS011;8419;52.358;9.752;2023-08-31T13:26:53;2.58;;;0.80;;
16612;SDS011;8419;52.358;9.752;2023-08-31T13:29:41;0.77;;;0.68;;
16612;SDS011;8419;52.358;9.752;2023-08-31T13:32:27;1.62;;;0.90;;
16612;SDS011;8419;52.358;9.752;2023-08-31T13:35:12;1.58;;;0.60;;
16612;SDS011;8419;52.358;9.752;2023-08-31T13:37:58;1.92;;;0.43;;
16612;SDS011;8419;52.358;9.752;2023-08-31T13:40:43;0.98;;;0.32;;
16612;SDS011;8419;52.358;9.752;2023-08-31T13:43:29;1.10;;;0.57;;
16612;SDS011;8419;52.358;9.752;2023-08-31T13:46:15;0.30;;;0.30;;
16612;SDS011;8419;52.358;9.752;2023-08-31T13:49:00;0.57;;;0.52;;
16612;SDS011;8419;52.358;9.752;2023-08-31T13:51:47;1.00;;;0.52;;
16612;SDS011;8419;52.358;9.752;2023-08-31T13:54:33;1.58;;;0.65;;
16612;SDS011;8419;52.358;9.752;2023-08-31T13:57:19;0.73;;;0.40;;
16612;SDS011;8419;52.358;9.752;2023-08-31T14:00:06;1.92;;;0.70;;
16612;SDS011;8419;52.358;9.752;2023-08-31T14:02:53;1.10;;;0.62;;
16612;SDS011;8419;52.358;9.752;2023-08-31T14:05:46;0.40;;;0.40;;
16612;SDS011;8419;52.358;9.752;2023-08-31T14:08:33;0.40;;;0.40;;
16612;SDS011;8419;52.358;9.752;2023-08-31T14:11:18;0.70;;;0.50;;
16612;SDS011;8419;52.358;9.752;2023-08-31T14:14:04;1.35;;;0.40;;
16612;SDS011;8419;52.358;9.752;2023-08-31T14:16:54;0.20;;;0.20;;
16612;SDS011;8419;52.358;9.752;2023-08-31T14:19:40;1.40;;;0.50;;
16612;SDS011;8419;52.358;9.752;2023-08-31T14:22:26;1.10;;;0.37;;
16612;SDS011;8419;52.358;9.752;2023-08-31T14:25:12;0.82;;;0.45;;
16612;SDS011;8419;52.358;9.752;2023-08-31T14:27:58;1.20;;;0.50;;
16612;SDS011;8419;52.358;9.752;2023-08-31T14:30:44;1.95;;;0.68;;
16612;SDS011;8419;52.358;9.752;2023-08-31T14:33:29;0.40;;;0.40;;
16612;SDS011;8419;52.358;9.752;2023-08-31T14:36:15;0.70;;;0.60;;
16612;SDS011;8419;52.358;9.752;2023-08-31T14:39:02;0.62;;;0.40;;
16612;SDS011;8419;52.358;9.752;2023-08-31T14:41:48;0.37;;;0.37;;
16612;SDS011;8419;52.358;9.752;2023-08-31T14:44:34;0.90;;;0.60;;
16612;SDS011;8419;52.358;9.752;2023-08-31T14:47:19;1.73;;;0.60;;
16612;SDS011;8419;52.358;9.752;2023-08-31T14:50:06;0.32;;;0.32;;
16612;SDS011;8419;52.358;9.752;2023-08-31T14:52:54;0.32;;;0.30;;
16612;SDS011;8419;52.358;9.752;2023-08-31T14:55:40;1.15;;;0.60;;
16612;SDS011;8419;52.358;9.752;2023-08-31T14:58:25;2.83;;;0.57;;
16612;SDS011;8419;52.358;9.752;2023-08-31T15:01:11;0.88;;;0.40;;
16612;SDS011;8419;52.358;9.752;2023-08-31T15:03:56;0.95;;;0.45;;
16612;SDS011;8419;52.358;9.752;2023-08-31T15:06:42;1.58;;;0.70;;
16612;SDS011;8419;52.358;9.752;2023-08-31T15:09:28;0.75;;;0.37;;
16612;SDS011;8419;52.358;9.752;2023-08-31T15:12:14;1.92;;;0.70;;
16612;SDS011;8419;52.358;9.752;2023-08-31T15:14:59;0.90;;;0.55;;
16612;SDS011;8419;52.358;9.752;2023-08-31T15:17:45;0.35;;;0.35;;
16612;SDS011;8419;52.358;9.752;2023-08-31T15:20:31;1.55;;;0.68;;
16612;SDS011;8419;52.358;9.752;2023-08-31T15:23:17;0.93;;;0.60;;
16612;SDS011;8419;52.358;9.752;2023-08-31T15:26:02;1.48;;;0.50;;
16612;SDS011;8419;52.358;9.752;2023-08-31T15:28:48;2.83;;;0.50;;
16612;SDS011;8419;52.358;9.752;2023-08-31T15:31:34;1.23;;;0.85;;
16612;SDS011;8419;52.358;9.752;2023-08-31T15:34:20;1.65;;;0.80;;
16612;SDS011;8419;52.358;9.752;2023-08-31T15:37:08;1.50;;;0.50;;
16612;SDS011;8419;52.358;9.752;2023-08-31T15:39:56;2.97;;;0.88;;
16612;SDS011;8419;52.358;9.752;2023-08-31T15:42:41;1.27;;;0.50;;
16612;SDS011;8419;52.358;9.752;2023-08-31T15:45:27;0.90;;;0.55;;
16612;SDS011;8419;52.358;9.752;2023-08-31T15:48:13;0.65;;;0.45;;
16612;SDS011;8419;52.358;9.752;2023-08-31T15:50:58;0.88;;;0.70;;
16612;SDS011;8419;52.358;9.752;2023-08-31T15:53:45;1.05;;;0.70;;
16612;SDS011;8419;52.358;9.752;2023-08-31T15:56:31;1.35;;;0.68;;
16612;SDS011;8419;52.358;9.752;2023-08-31T15:59:17;0.65;;;0.55;;
16612;SDS011;8419;52.358;9.752;2023-08-31T16:02:04;2.58;;;0.90;;
16612;SDS011;8419;52.358;9.752;2023-08-31T16:04:52;0.68;;;0.68;;
16612;SDS011;8419;52.358;9.752;2023-08-31T16:07:37;2.75;;;0.62;;
16612;SDS011;8419;52.358;9.752;2023-08-31T16:10:25;2.55;;;0.80;;
16612;SDS011;8419;52.358;9.752;2023-08-31T16:13:11;0.68;;;0.60;;
16612;SDS011;8419;52.358;9.752;2023-08-31T16:15:56;2.00;;;0.82;;
16612;SDS011;8419;52.358;9.752;2023-08-31T16:18:43;4.03;;;0.88;;
16612;SDS011;8419;52.358;9.752;2023-08-31T16:21:29;2.12;;;0.68;;
16612;SDS011;8419;52.358;9.752;2023-08-31T16:24:14;1.73;;;0.93;;
16612;SDS011;8419;52.358;9.752;2023-08-31T16:27:00;2.10;;;0.90;;
16612;SDS011;8419;52.358;9.752;2023-08-31T16:29:46;1.65;;;0.93;;
16612;SDS011;8419;52.358;9.752;2023-08-31T16:32:33;2.03;;;0.80;;
16612;SDS011;8419;52.358;9.752;2023-08-31T16:35:19;0.93;;;0.70;;
16612;SDS011;8419;52.358;9.752;2023-08-31T16:38:04;2.25;;;0.98;;
16612;SDS011;8419;52.358;9.752;2023-08-31T16:40:50;0.50;;;0.50;;
16612;SDS011;8419;52.358;9.752;2023-08-31T16:43:37;1.77;;;0.85;;
16612;SDS011;8419;52.358;9.752;2023-08-31T16:46:23;5.07;;;1.30;;
16612;SDS011;8419;52.358;9.752;2023-08-31T16:49:09;3.12;;;0.80;;
16612;SDS011;8419;52.358;9.752;2023-08-31T16:51:54;2.05;;;1.00;;
16612;SDS011;8419;52.358;9.752;2023-08-31T16:54:40;2.22;;;1.00;;
16612;SDS011;8419;52.358;9.752;2023-08-31T16:57:26;3.78;;;0.80;;
16612;SDS011;8419;52.358;9.752;2023-08-31T17:00:13;2.35;;;0.82;;